Atlanta, NE

7:39 PM CDT on August 22, 2014 (GMT -0500)
Hastings Municipal | Change Station
CLOSE
Current Station
Airport
Location: Hastings,
Elevation: 1959 ft
Nearby Weather Stations
Active Advisory: Severe Thunderstorm Watch

Elev 1959 ft 40.60 °N, 98.43 °W | Updated 46 minutes ago

Clear
Clear
82 °F
Feels Like 86 °F
N
7
Wind Variable Wind from East

Today
High -- | Low -- °F
--% Chance of Precip.
Yesterday
High -- | Low -- °F
Precip. -- in
6:55 AM 8:24 PM
Waning Crescent, 6% visible
Pressure 29.87 in
Visibility 10.0 miles
Clouds Clear
Heat Index 86 °F
Dew Point 71 °F
Humidity 69%
Rainfall 0.00 in
Snow Depth Not available.
UV 1 out of 12
Pollen 10.10 out of 12
Air Quality Not available.
Flu Activity Not available.
METAR KHSI 222353Z AUTO 09006KT 10SM CLR 28/22 A2992 RMK AO2 SLP113 60000 T02780217 10300 20278 56006

More Conditions Fewer Conditions

Pressure 29.87 in
Visibility 10.0 miles
Clouds Clear
Heat Index 86 °F
Dew Point 71 °F
Humidity 69%
Rainfall 0.00 in
Snow Depth Not available.
UV 1 out of 12
Pollen 10.10 out of 12
Air Quality Not available.
Flu Activity Not available.
METAR KHSI 222353Z AUTO 09006KT 10SM CLR 28/22 A2992 RMK AO2 SLP113 60000 T02780217 10300 20278 56006

More Conditions Fewer Conditions

10-Day Weather Forecast

Almanac

Astronomy

Aug. 22, 2014 Rise Set
Actual Time 6:55 AM CDT 8:24 PM CDT
Civil Twilight 6:26 AM CDT 8:53 PM CDT
Nautical Twilight 5:51 AM CDT 9:27 PM CDT
Astronomical Twilight 5:15 AM CDT 10:04 PM CDT
Moon 4:18 AM CDT (8/22) 6:34 PM CDT (8/22)
Length of Visible Light 14h 26m
Length of Day
13h 29m
Tomorrow will be 2m 28s shorter.
Waning Crescent, 6% of the Moon is Illuminated
Today
Waning Crescent
Aug 25
New
Sep 2
First Quarter
Sep 8
Full
Sep 15
Last Quarter

Today's Extremes

State Highs State Lows

Community

WunderPhotos

Upload Photos

1,746,322 photos uploaded!

WunderBlogs® & News

Nearby

Snow Depth

Station Depth Elevation
No new snow has been reported.

Earthquake Activity

City Distance Mag. Time & Date
No recent earthquake activity has been reported nearby.
Minimum magnitude displayed is 2.5.

Coastal Water Temperatures

Place Temperature
No Stations Reporting

Nearby Weather Stations